Aérodrome :







RETROUVEZ-NOUS SUR...

 
LOGIN :

S'inscrire | Disclaimer

   EN    FR    IT 

 









Légende :    VFR   VFR Marginal   IFR   IFR Intensif   IFR Très Intensif
Visi : 
Plafond : 
>= 8 km
>= 3000ft
5 à 8 km
1000 à 3000 ft
1500m à 5 km
500 à 1000 ft
800 à 1500m
200 à 500 ft
< 800m
< 200 ft
Symboles :   Orages  Brouillard  Fortes neiges  Fortes précipitations  Vent > 20 kt






- Altitude de l'aérodrome : 90 ft
- Code IATA : YHU


CYHU - Montréal Saint-Hubert

DERNIER METAR :
  • 261700Z AUTO 04012KT 9SM OVC075 M02/M07 A3007 RMK SLP184

METARs EXPIRÉS :
  • 261600Z AUTO 05010G16KT 9SM FEW045 BKN060 OVC073 M02/M07 A3008 RMK SLP189
  • 261500Z AUTO 03016G21KT 9SM BKN065 BKN095 M03/M08 A3010 RMK SLP194

TAF TAF CYHU
Valide du 26 à 12h jusqu'au 27 à 12h UTC


261138Z 2612/2712 03010G20KT P6SM OVC080
FM261500 03012G22KT P6SM SCT020 OVC050
TEMPO 2615/2618 P6SM -SN
FM261800 03012G22KT 6SM -SN SCT020 OVC040
FM262000 04012G22KT 21/2SM -SN OVC020
FM262200 05015G25KT 11/2SM -SN SCT008 OVC010
PROB30 2700/2703 2SM -SNRAPL BR
FM270300 06015G25KT 21/2SM -RASN BR OVC012
FM270600 07015G25KT 6SM -RA BR OVC020
FM271000 07020G30KT 1SM -RASN BR OVC010 RMK FCST BASED ON AUTO OBS. NXT FCST BY 261800Z



MET'MAP, la Météo Aéronautique d'un coup d'oeil ! - Copyright ORBIFLY Décembre 2007 - Disclaimer

ORBIFLY MET'MAP TEAM :

Programmation & Développement : Alexandra Zaïnal
Sur une idée originale de : Baudouin d'Aumeries
Assistance à la programmation : Marc-Olivier Méhu
Soutien technique & logistique : Manuel Goepfert

Contact : metmap@orbifly.com




SOURCES & CREDITS :

   NOAA